Terminal Aerodrome Forecast
Issued by NWS

Home | Current Version | Previous Version | Text Only | Print | Product List | Glossary On
Versions: 1 2 3 4 5 6 7 8 9 10 11 12 13 14 15 16 17 18 19 20 21 22 23 24
022
FTUS45 KRIW 141120
TAFPNA
TAF
KPNA 141120Z 1412/1512 28006KT 4SM -SN OVC025
      TEMPO 1412/1414 2SM -SN OVC015
     FM141900 30013KT 2SM -SN OVC015
     FM150000 30011KT 6SM -SN SCT015 OVC030
      AMD NOT SKED=

USA.gov is the U.S. government's official web portal to all federal, state and local government web resources and services.